sensor_id;sensor_type;location;lat;lon;timestamp;temperature;humidity
13049;DHT22;6591;51.446;5.404;2023-11-18T00:00:02;6.40;99.90
13049;DHT22;6591;51.446;5.404;2023-11-18T00:02:38;6.50;99.90
13049;DHT22;6591;51.446;5.404;2023-11-18T00:05:06;6.50;99.90
13049;DHT22;6591;51.446;5.404;2023-11-18T00:07:34;6.50;99.90
13049;DHT22;6591;51.446;5.404;2023-11-18T00:10:02;6.40;99.90
13049;DHT22;6591;51.446;5.404;2023-11-18T00:12:31;7.60;99.90
13049;DHT22;6591;51.446;5.404;2023-11-18T00:14:59;8.30;99.90
13049;DHT22;6591;51.446;5.404;2023-11-18T00:17:30;6.50;99.90
13049;DHT22;6591;51.446;5.404;2023-11-18T00:19:58;6.50;99.90
13049;DHT22;6591;51.446;5.404;2023-11-18T00:22:26;6.50;99.90
13049;DHT22;6591;51.446;5.404;2023-11-18T00:24:54;8.50;99.90
13049;DHT22;6591;51.446;5.404;2023-11-18T00:27:21;6.50;99.90
13049;DHT22;6591;51.446;5.404;2023-11-18T00:29:49;6.50;99.90
13049;DHT22;6591;51.446;5.404;2023-11-18T00:32:16;6.50;99.90
13049;DHT22;6591;51.446;5.404;2023-11-18T00:34:44;6.50;99.90
13049;DHT22;6591;51.446;5.404;2023-11-18T00:37:11;8.60;99.90
13049;DHT22;6591;51.446;5.404;2023-11-18T00:39:38;6.50;99.90
13049;DHT22;6591;51.446;5.404;2023-11-18T00:42:05;6.50;99.90
13049;DHT22;6591;51.446;5.404;2023-11-18T00:44:32;4.30;99.90
13049;DHT22;6591;51.446;5.404;2023-11-18T00:46:59;8.00;99.90
13049;DHT22;6591;51.446;5.404;2023-11-18T00:49:27;7.60;99.90
13049;DHT22;6591;51.446;5.404;2023-11-18T00:51:54;8.10;99.90
13049;DHT22;6591;51.446;5.404;2023-11-18T00:57:41;6.30;99.90
13049;DHT22;6591;51.446;5.404;2023-11-18T01:00:11;6.20;99.90
13049;DHT22;6591;51.446;5.404;2023-11-18T01:02:49;6.10;99.90
13049;DHT22;6591;51.446;5.404;2023-11-18T01:05:17;6.10;99.90
13049;DHT22;6591;51.446;5.404;2023-11-18T01:07:44;7.70;99.90
13049;DHT22;6591;51.446;5.404;2023-11-18T01:10:11;6.00;99.90
13049;DHT22;6591;51.446;5.404;2023-11-18T01:12:41;6.00;99.90
13049;DHT22;6591;51.446;5.404;2023-11-18T01:15:12;8.10;99.90
13049;DHT22;6591;51.446;5.404;2023-11-18T01:17:39;6.80;99.90
13049;DHT22;6591;51.446;5.404;2023-11-18T01:20:08;6.00;99.90
13049;DHT22;6591;51.446;5.404;2023-11-18T01:22:38;5.90;99.90
13049;DHT22;6591;51.446;5.404;2023-11-18T01:25:06;6.80;99.90
13049;DHT22;6591;51.446;5.404;2023-11-18T01:27:35;6.00;99.90
13049;DHT22;6591;51.446;5.404;2023-11-18T01:30:02;8.20;99.90
13049;DHT22;6591;51.446;5.404;2023-11-18T01:32:32;6.10;99.90
13049;DHT22;6591;51.446;5.404;2023-11-18T01:34:59;8.00;99.90
13049;DHT22;6591;51.446;5.404;2023-11-18T01:37:26;6.10;99.90
13049;DHT22;6591;51.446;5.404;2023-11-18T01:39:54;6.20;99.90
13049;DHT22;6591;51.446;5.404;2023-11-18T01:42:21;6.20;99.90
13049;DHT22;6591;51.446;5.404;2023-11-18T01:44:48;6.20;99.90
13049;DHT22;6591;51.446;5.404;2023-11-18T01:47:15;6.30;99.90
13049;DHT22;6591;51.446;5.404;2023-11-18T01:49:44;6.30;99.90
13049;DHT22;6591;51.446;5.404;2023-11-18T01:52:11;6.30;99.90
13049;DHT22;6591;51.446;5.404;2023-11-18T01:54:39;6.40;99.90
13049;DHT22;6591;51.446;5.404;2023-11-18T01:57:08;8.20;99.90
13049;DHT22;6591;51.446;5.404;2023-11-18T01:59:36;8.80;99.90
13049;DHT22;6591;51.446;5.404;2023-11-18T02:02:08;6.50;99.90
13049;DHT22;6591;51.446;5.404;2023-11-18T02:04:35;6.60;99.90
13049;DHT22;6591;51.446;5.404;2023-11-18T02:07:03;6.60;99.90
13049;DHT22;6591;51.446;5.404;2023-11-18T02:09:36;6.70;99.90
13049;DHT22;6591;51.446;5.404;2023-11-18T02:12:23;6.70;99.90
13049;DHT22;6591;51.446;5.404;2023-11-18T02:14:58;6.80;99.90
13049;DHT22;6591;51.446;5.404;2023-11-18T02:17:28;6.80;99.90
13049;DHT22;6591;51.446;5.404;2023-11-18T02:19:57;7.40;99.90
13049;DHT22;6591;51.446;5.404;2023-11-18T02:22:25;6.80;99.90
13049;DHT22;6591;51.446;5.404;2023-11-18T02:24:52;8.70;99.90
13049;DHT22;6591;51.446;5.404;2023-11-18T02:27:20;6.90;99.90
13049;DHT22;6591;51.446;5.404;2023-11-18T02:29:49;8.00;99.90
13049;DHT22;6591;51.446;5.404;2023-11-18T02:32:29;9.60;99.90
13049;DHT22;6591;51.446;5.404;2023-11-18T02:37:54;6.90;99.90
13049;DHT22;6591;51.446;5.404;2023-11-18T02:40:36;7.00;99.90
13049;DHT22;6591;51.446;5.404;2023-11-18T02:43:09;7.00;99.90
13049;DHT22;6591;51.446;5.404;2023-11-18T02:45:37;8.90;99.90
13049;DHT22;6591;51.446;5.404;2023-11-18T02:48:06;7.00;99.90
13049;DHT22;6591;51.446;5.404;2023-11-18T02:50:34;7.00;99.90
13049;DHT22;6591;51.446;5.404;2023-11-18T02:53:08;7.00;99.90
13049;DHT22;6591;51.446;5.404;2023-11-18T02:55:36;7.00;99.90
13049;DHT22;6591;51.446;5.404;2023-11-18T02:58:03;9.10;99.90
13049;DHT22;6591;51.446;5.404;2023-11-18T03:00:34;7.40;99.90
13049;DHT22;6591;51.446;5.404;2023-11-18T03:03:01;7.00;99.90
13049;DHT22;6591;51.446;5.404;2023-11-18T03:05:30;7.00;99.90
13049;DHT22;6591;51.446;5.404;2023-11-18T03:07:57;9.30;99.90
13049;DHT22;6591;51.446;5.404;2023-11-18T03:10:25;7.00;99.90
13049;DHT22;6591;51.446;5.404;2023-11-18T03:12:53;7.00;99.90
13049;DHT22;6591;51.446;5.404;2023-11-18T03:15:22;7.00;99.90
13049;DHT22;6591;51.446;5.404;2023-11-18T03:17:51;7.00;99.90
13049;DHT22;6591;51.446;5.404;2023-11-18T03:20:20;8.10;99.90
13049;DHT22;6591;51.446;5.404;2023-11-18T03:22:50;7.10;99.90
13049;DHT22;6591;51.446;5.404;2023-11-18T03:25:20;7.00;99.90
13049;DHT22;6591;51.446;5.404;2023-11-18T03:27:48;7.00;99.90
13049;DHT22;6591;51.446;5.404;2023-11-18T03:30:15;7.00;99.90
13049;DHT22;6591;51.446;5.404;2023-11-18T03:32:44;7.00;99.90
13049;DHT22;6591;51.446;5.404;2023-11-18T03:35:12;9.20;99.90
13049;DHT22;6591;51.446;5.404;2023-11-18T03:37:40;8.90;99.90
13049;DHT22;6591;51.446;5.404;2023-11-18T03:40:10;6.90;99.90
13049;DHT22;6591;51.446;5.404;2023-11-18T03:42:40;6.90;99.90
13049;DHT22;6591;51.446;5.404;2023-11-18T03:45:08;6.80;99.90
13049;DHT22;6591;51.446;5.404;2023-11-18T03:47:36;7.00;99.90
13049;DHT22;6591;51.446;5.404;2023-11-18T03:50:04;7.00;99.90
13049;DHT22;6591;51.446;5.404;2023-11-18T03:52:32;7.00;99.90
13049;DHT22;6591;51.446;5.404;2023-11-18T03:55:03;7.00;99.90
13049;DHT22;6591;51.446;5.404;2023-11-18T03:57:32;7.40;99.90
13049;DHT22;6591;51.446;5.404;2023-11-18T03:59:59;7.20;99.90
13049;DHT22;6591;51.446;5.404;2023-11-18T04:02:26;7.10;99.90
13049;DHT22;6591;51.446;5.404;2023-11-18T04:04:53;7.10;99.90
13049;DHT22;6591;51.446;5.404;2023-11-18T04:07:21;8.80;99.90
13049;DHT22;6591;51.446;5.404;2023-11-18T04:09:48;8.30;99.90
13049;DHT22;6591;51.446;5.404;2023-11-18T04:12:15;7.20;99.90
13049;DHT22;6591;51.446;5.404;2023-11-18T04:14:43;7.20;99.90
13049;DHT22;6591;51.446;5.404;2023-11-18T04:17:10;7.20;99.90
13049;DHT22;6591;51.446;5.404;2023-11-18T04:19:37;7.20;99.90
13049;DHT22;6591;51.446;5.404;2023-11-18T04:22:05;9.10;99.90
13049;DHT22;6591;51.446;5.404;2023-11-18T04:24:32;7.20;99.90
13049;DHT22;6591;51.446;5.404;2023-11-18T04:27:02;7.20;99.90
13049;DHT22;6591;51.446;5.404;2023-11-18T04:29:29;8.70;99.90
13049;DHT22;6591;51.446;5.404;2023-11-18T04:31:57;7.30;99.90
13049;DHT22;6591;51.446;5.404;2023-11-18T04:34:24;9.40;99.90
13049;DHT22;6591;51.446;5.404;2023-11-18T04:36:51;7.30;99.90
13049;DHT22;6591;51.446;5.404;2023-11-18T04:39:18;7.40;99.90
13049;DHT22;6591;51.446;5.404;2023-11-18T04:41:47;7.40;99.90
13049;DHT22;6591;51.446;5.404;2023-11-18T04:44:14;7.40;99.90
13049;DHT22;6591;51.446;5.404;2023-11-18T04:46:43;8.40;99.90
13049;DHT22;6591;51.446;5.404;2023-11-18T04:49:11;9.50;99.90
13049;DHT22;6591;51.446;5.404;2023-11-18T04:51:38;7.50;99.90
13049;DHT22;6591;51.446;5.404;2023-11-18T04:54:06;9.00;99.90
13049;DHT22;6591;51.446;5.404;2023-11-18T04:56:35;7.50;99.90
13049;DHT22;6591;51.446;5.404;2023-11-18T04:59:03;7.50;99.90
13049;DHT22;6591;51.446;5.404;2023-11-18T05:01:33;7.50;99.90
13049;DHT22;6591;51.446;5.404;2023-11-18T05:04:00;7.50;99.90
13049;DHT22;6591;51.446;5.404;2023-11-18T05:06:27;7.60;99.90
13049;DHT22;6591;51.446;5.404;2023-11-18T05:08:54;8.70;99.90
13049;DHT22;6591;51.446;5.404;2023-11-18T05:11:22;9.40;99.90
13049;DHT22;6591;51.446;5.404;2023-11-18T05:13:49;8.40;99.90
13049;DHT22;6591;51.446;5.404;2023-11-18T05:16:17;7.60;99.90
13049;DHT22;6591;51.446;5.404;2023-11-18T05:18:44;9.50;99.90
13049;DHT22;6591;51.446;5.404;2023-11-18T05:21:12;7.60;99.90
13049;DHT22;6591;51.446;5.404;2023-11-18T05:23:39;7.70;99.90
13049;DHT22;6591;51.446;5.404;2023-11-18T05:26:06;7.70;99.90
13049;DHT22;6591;51.446;5.404;2023-11-18T05:28:33;7.70;99.90
13049;DHT22;6591;51.446;5.404;2023-11-18T05:31:01;8.00;99.90
13049;DHT22;6591;51.446;5.404;2023-11-18T05:33:29;7.70;99.90
13049;DHT22;6591;51.446;5.404;2023-11-18T05:35:57;7.70;99.90
13049;DHT22;6591;51.446;5.404;2023-11-18T05:38:24;7.80;99.90
13049;DHT22;6591;51.446;5.404;2023-11-18T05:40:54;10.00;99.90
13049;DHT22;6591;51.446;5.404;2023-11-18T05:43:29;9.70;99.90
13049;DHT22;6591;51.446;5.404;2023-11-18T05:46:08;7.80;99.90
13049;DHT22;6591;51.446;5.404;2023-11-18T05:48:45;8.10;99.90
13049;DHT22;6591;51.446;5.404;2023-11-18T05:51:12;9.30;99.90
13049;DHT22;6591;51.446;5.404;2023-11-18T05:53:43;9.30;99.90
13049;DHT22;6591;51.446;5.404;2023-11-18T05:56:14;7.90;99.90
13049;DHT22;6591;51.446;5.404;2023-11-18T05:58:45;9.40;99.90
13049;DHT22;6591;51.446;5.404;2023-11-18T06:01:14;7.90;99.90
13049;DHT22;6591;51.446;5.404;2023-11-18T06:03:43;7.90;99.90
13049;DHT22;6591;51.446;5.404;2023-11-18T06:06:15;7.90;99.90
13049;DHT22;6591;51.446;5.404;2023-11-18T06:08:49;7.90;99.90
13049;DHT22;6591;51.446;5.404;2023-11-18T06:11:18;7.90;99.90
13049;DHT22;6591;51.446;5.404;2023-11-18T06:13:48;8.00;99.90
13049;DHT22;6591;51.446;5.404;2023-11-18T06:16:18;7.90;99.90
13049;DHT22;6591;51.446;5.404;2023-11-18T06:18:51;8.40;99.90
13049;DHT22;6591;51.446;5.404;2023-11-18T06:21:26;8.00;99.90
13049;DHT22;6591;51.446;5.404;2023-11-18T06:23:58;8.00;99.90
13049;DHT22;6591;51.446;5.404;2023-11-18T06:26:27;8.00;99.90
13049;DHT22;6591;51.446;5.404;2023-11-18T06:28:55;8.00;99.90
13049;DHT22;6591;51.446;5.404;2023-11-18T06:31:23;8.10;99.90
13049;DHT22;6591;51.446;5.404;2023-11-18T06:33:51;8.10;99.90
13049;DHT22;6591;51.446;5.404;2023-11-18T06:36:19;8.10;99.90
13049;DHT22;6591;51.446;5.404;2023-11-18T06:38:49;8.60;99.90
13049;DHT22;6591;51.446;5.404;2023-11-18T06:41:19;8.10;99.90
13049;DHT22;6591;51.446;5.404;2023-11-18T06:43:50;8.10;99.90
13049;DHT22;6591;51.446;5.404;2023-11-18T06:46:26;8.10;99.90
13049;DHT22;6591;51.446;5.404;2023-11-18T06:49:01;8.20;99.90
13049;DHT22;6591;51.446;5.404;2023-11-18T06:51:38;10.60;99.90
13049;DHT22;6591;51.446;5.404;2023-11-18T06:54:05;8.10;99.90
13049;DHT22;6591;51.446;5.404;2023-11-18T06:56:38;8.10;99.90
13049;DHT22;6591;51.446;5.404;2023-11-18T06:59:12;8.20;99.90
13049;DHT22;6591;51.446;5.404;2023-11-18T07:01:42;10.20;99.90
13049;DHT22;6591;51.446;5.404;2023-11-18T07:04:11;9.50;99.90
13049;DHT22;6591;51.446;5.404;2023-11-18T07:06:41;8.20;99.90
13049;DHT22;6591;51.446;5.404;2023-11-18T07:09:10;8.90;99.90
13049;DHT22;6591;51.446;5.404;2023-11-18T07:11:44;8.20;99.90
13049;DHT22;6591;51.446;5.404;2023-11-18T07:14:14;9.40;99.90
13049;DHT22;6591;51.446;5.404;2023-11-18T07:16:44;8.20;99.90
13049;DHT22;6591;51.446;5.404;2023-11-18T07:19:12;8.20;99.90
13049;DHT22;6591;51.446;5.404;2023-11-18T07:21:49;8.20;99.90
13049;DHT22;6591;51.446;5.404;2023-11-18T07:24:17;10.20;99.90
13049;DHT22;6591;51.446;5.404;2023-11-18T07:26:45;9.50;99.90
13049;DHT22;6591;51.446;5.404;2023-11-18T07:29:13;10.20;99.90
13049;DHT22;6591;51.446;5.404;2023-11-18T07:31:42;8.80;99.90
13049;DHT22;6591;51.446;5.404;2023-11-18T07:34:10;8.30;99.90
13049;DHT22;6591;51.446;5.404;2023-11-18T07:36:37;8.30;99.90
13049;DHT22;6591;51.446;5.404;2023-11-18T07:39:04;8.30;99.90
13049;DHT22;6591;51.446;5.404;2023-11-18T07:41:31;8.30;99.90
13049;DHT22;6591;51.446;5.404;2023-11-18T07:43:59;8.30;99.90
13049;DHT22;6591;51.446;5.404;2023-11-18T07:46:27;8.40;99.90
13049;DHT22;6591;51.446;5.404;2023-11-18T07:48:57;8.40;99.90
13049;DHT22;6591;51.446;5.404;2023-11-18T07:51:25;9.70;99.90
13049;DHT22;6591;51.446;5.404;2023-11-18T07:53:52;8.40;99.90
13049;DHT22;6591;51.446;5.404;2023-11-18T07:56:22;8.40;99.90
13049;DHT22;6591;51.446;5.404;2023-11-18T07:58:50;8.50;99.90
13049;DHT22;6591;51.446;5.404;2023-11-18T08:01:18;8.50;99.90
13049;DHT22;6591;51.446;5.404;2023-11-18T08:03:48;9.70;99.90
13049;DHT22;6591;51.446;5.404;2023-11-18T08:06:19;10.50;99.90
13049;DHT22;6591;51.446;5.404;2023-11-18T08:08:46;8.50;99.90
13049;DHT22;6591;51.446;5.404;2023-11-18T08:11:14;8.60;99.90
13049;DHT22;6591;51.446;5.404;2023-11-18T08:13:42;9.50;99.90
13049;DHT22;6591;51.446;5.404;2023-11-18T08:16:10;8.60;99.90
13049;DHT22;6591;51.446;5.404;2023-11-18T08:18:39;11.10;99.90
13049;DHT22;6591;51.446;5.404;2023-11-18T08:21:06;8.70;99.90
13049;DHT22;6591;51.446;5.404;2023-11-18T08:23:34;10.40;99.90
13049;DHT22;6591;51.446;5.404;2023-11-18T08:26:02;8.80;99.90
13049;DHT22;6591;51.446;5.404;2023-11-18T08:28:30;8.80;99.90
13049;DHT22;6591;51.446;5.404;2023-11-18T08:30:58;8.80;99.90
13049;DHT22;6591;51.446;5.404;2023-11-18T08:33:25;8.90;99.90
13049;DHT22;6591;51.446;5.404;2023-11-18T08:35:52;9.20;99.90
13049;DHT22;6591;51.446;5.404;2023-11-18T08:38:19;8.90;99.90
13049;DHT22;6591;51.446;5.404;2023-11-18T08:40:46;9.00;99.90
13049;DHT22;6591;51.446;5.404;2023-11-18T08:43:15;9.00;99.90
13049;DHT22;6591;51.446;5.404;2023-11-18T08:45:43;9.10;99.90
13049;DHT22;6591;51.446;5.404;2023-11-18T08:48:11;9.10;99.90
13049;DHT22;6591;51.446;5.404;2023-11-18T08:50:38;9.10;99.90
13049;DHT22;6591;51.446;5.404;2023-11-18T08:53:10;9.10;99.90
13049;DHT22;6591;51.446;5.404;2023-11-18T08:55:38;9.20;99.90
13049;DHT22;6591;51.446;5.404;2023-11-18T08:58:10;9.30;99.90
13049;DHT22;6591;51.446;5.404;2023-11-18T09:00:56;9.20;99.90
13049;DHT22;6591;51.446;5.404;2023-11-18T09:03:41;9.20;99.90
13049;DHT22;6591;51.446;5.404;2023-11-18T09:06:19;9.20;99.90
13049;DHT22;6591;51.446;5.404;2023-11-18T09:08:55;9.30;99.90
13049;DHT22;6591;51.446;5.404;2023-11-18T09:11:25;10.10;99.90
13049;DHT22;6591;51.446;5.404;2023-11-18T09:13:59;9.30;99.90
13049;DHT22;6591;51.446;5.404;2023-11-18T09:16:28;9.30;99.90
13049;DHT22;6591;51.446;5.404;2023-11-18T09:18:56;9.30;99.90
13049;DHT22;6591;51.446;5.404;2023-11-18T09:21:28;10.30;99.90
13049;DHT22;6591;51.446;5.404;2023-11-18T09:23:57;9.50;99.90
13049;DHT22;6591;51.446;5.404;2023-11-18T09:26:24;9.40;99.90
13049;DHT22;6591;51.446;5.404;2023-11-18T09:28:53;11.40;99.90
13049;DHT22;6591;51.446;5.404;2023-11-18T09:31:20;9.50;99.90
13049;DHT22;6591;51.446;5.404;2023-11-18T09:33:49;9.60;99.90
13049;DHT22;6591;51.446;5.404;2023-11-18T09:36:20;9.60;99.90
13049;DHT22;6591;51.446;5.404;2023-11-18T09:38:49;9.60;99.90
13049;DHT22;6591;51.446;5.404;2023-11-18T09:41:17;9.70;99.90
13049;DHT22;6591;51.446;5.404;2023-11-18T09:43:46;9.80;99.90
13049;DHT22;6591;51.446;5.404;2023-11-18T09:46:16;9.80;99.90
13049;DHT22;6591;51.446;5.404;2023-11-18T09:48:53;11.70;99.90
13049;DHT22;6591;51.446;5.404;2023-11-18T09:51:43;9.90;99.90
13049;DHT22;6591;51.446;5.404;2023-11-18T09:54:40;11.90;99.90
13049;DHT22;6591;51.446;5.404;2023-11-18T09:57:39;10.00;99.90
13049;DHT22;6591;51.446;5.404;2023-11-18T10:00:16;10.10;99.90
13049;DHT22;6591;51.446;5.404;2023-11-18T10:02:54;10.10;99.90
13049;DHT22;6591;51.446;5.404;2023-11-18T10:05:24;11.40;99.90
13049;DHT22;6591;51.446;5.404;2023-11-18T10:07:55;11.00;99.90
13049;DHT22;6591;51.446;5.404;2023-11-18T10:10:25;10.20;99.90
13049;DHT22;6591;51.446;5.404;2023-11-18T10:13:03;11.50;99.90
13049;DHT22;6591;51.446;5.404;2023-11-18T10:15:51;11.30;99.90
13049;DHT22;6591;51.446;5.404;2023-11-18T10:18:24;12.30;99.90
13049;DHT22;6591;51.446;5.404;2023-11-18T10:20:52;12.10;99.90
13049;DHT22;6591;51.446;5.404;2023-11-18T10:23:21;10.40;99.90
13049;DHT22;6591;51.446;5.404;2023-11-18T10:25:55;10.40;99.90
13049;DHT22;6591;51.446;5.404;2023-11-18T10:30:57;10.50;99.90
13049;DHT22;6591;51.446;5.404;2023-11-18T10:33:26;10.50;99.90
13049;DHT22;6591;51.446;5.404;2023-11-18T10:36:00;10.80;99.90
13049;DHT22;6591;51.446;5.404;2023-11-18T10:38:32;10.60;99.90
13049;DHT22;6591;51.446;5.404;2023-11-18T10:41:10;12.30;99.90
13049;DHT22;6591;51.446;5.404;2023-11-18T10:43:39;10.70;99.90
13049;DHT22;6591;51.446;5.404;2023-11-18T10:46:10;11.30;99.90
13049;DHT22;6591;51.446;5.404;2023-11-18T10:48:40;11.90;99.90
13049;DHT22;6591;51.446;5.404;2023-11-18T10:51:19;10.80;99.90
13049;DHT22;6591;51.446;5.404;2023-11-18T10:53:48;10.80;99.90
13049;DHT22;6591;51.446;5.404;2023-11-18T10:56:20;10.90;99.90
13049;DHT22;6591;51.446;5.404;2023-11-18T10:59:07;10.90;99.90
13049;DHT22;6591;51.446;5.404;2023-11-18T11:01:35;10.90;99.90
13049;DHT22;6591;51.446;5.404;2023-11-18T11:04:13;12.30;99.90
13049;DHT22;6591;51.446;5.404;2023-11-18T11:06:44;11.00;99.90
13049;DHT22;6591;51.446;5.404;2023-11-18T11:09:25;12.90;99.90
13049;DHT22;6591;51.446;5.404;2023-11-18T11:12:10;12.60;99.90
13049;DHT22;6591;51.446;5.404;2023-11-18T11:14:59;11.00;99.90
13049;DHT22;6591;51.446;5.404;2023-11-18T11:17:35;12.40;99.90
13049;DHT22;6591;51.446;5.404;2023-11-18T11:20:08;11.10;99.90
13049;DHT22;6591;51.446;5.404;2023-11-18T11:23:31;11.10;99.90
13049;DHT22;6591;51.446;5.404;2023-11-18T11:26:28;11.10;99.90
13049;DHT22;6591;51.446;5.404;2023-11-18T11:32:12;11.10;99.90
13049;DHT22;6591;51.446;5.404;2023-11-18T11:35:10;11.10;99.90
13049;DHT22;6591;51.446;5.404;2023-11-18T11:37:49;11.70;99.90
13049;DHT22;6591;51.446;5.404;2023-11-18T11:40:17;12.10;99.90
13049;DHT22;6591;51.446;5.404;2023-11-18T11:42:51;12.50;99.90
13049;DHT22;6591;51.446;5.404;2023-11-18T11:45:23;12.40;99.90
13049;DHT22;6591;51.446;5.404;2023-11-18T11:47:57;11.20;99.90
13049;DHT22;6591;51.446;5.404;2023-11-18T11:54:02;11.20;99.90
13049;DHT22;6591;51.446;5.404;2023-11-18T11:56:42;12.00;99.90
13049;DHT22;6591;51.446;5.404;2023-11-18T11:59:10;12.70;99.90
13049;DHT22;6591;51.446;5.404;2023-11-18T12:01:40;12.60;99.90
13049;DHT22;6591;51.446;5.404;2023-11-18T12:04:14;12.50;99.90
13049;DHT22;6591;51.446;5.404;2023-11-18T12:06:48;11.30;99.90
13049;DHT22;6591;51.446;5.404;2023-11-18T12:09:36;11.10;99.90
13049;DHT22;6591;51.446;5.404;2023-11-18T12:12:17;11.30;99.90
13049;DHT22;6591;51.446;5.404;2023-11-18T12:15:04;11.90;99.90
13049;DHT22;6591;51.446;5.404;2023-11-18T12:20:42;11.30;99.90
13049;DHT22;6591;51.446;5.404;2023-11-18T12:23:21;11.30;99.90
13049;DHT22;6591;51.446;5.404;2023-11-18T12:25:53;11.40;99.90
13049;DHT22;6591;51.446;5.404;2023-11-18T12:28:32;12.70;99.90
13049;DHT22;6591;51.446;5.404;2023-11-18T12:31:04;11.20;99.90
13049;DHT22;6591;51.446;5.404;2023-11-18T12:36:58;11.20;99.90
13049;DHT22;6591;51.446;5.404;2023-11-18T12:48:24;11.20;99.90
13049;DHT22;6591;51.446;5.404;2023-11-18T12:50:55;11.10;99.90
13049;DHT22;6591;51.446;5.404;2023-11-18T12:53:23;11.10;99.90
13049;DHT22;6591;51.446;5.404;2023-11-18T12:55:52;12.60;99.90
13049;DHT22;6591;51.446;5.404;2023-11-18T12:58:20;12.40;99.90
13049;DHT22;6591;51.446;5.404;2023-11-18T13:00:47;11.20;99.90
13049;DHT22;6591;51.446;5.404;2023-11-18T13:03:14;11.10;99.90
13049;DHT22;6591;51.446;5.404;2023-11-18T13:05:42;11.20;99.90
13049;DHT22;6591;51.446;5.404;2023-11-18T13:08:10;11.10;99.90
13049;DHT22;6591;51.446;5.404;2023-11-18T13:10:38;11.30;99.90
13049;DHT22;6591;51.446;5.404;2023-11-18T13:13:05;11.20;99.90
13049;DHT22;6591;51.446;5.404;2023-11-18T13:15:35;12.60;99.90
13049;DHT22;6591;51.446;5.404;2023-11-18T13:18:04;11.20;99.90
13049;DHT22;6591;51.446;5.404;2023-11-18T13:20:34;11.20;99.90
13049;DHT22;6591;51.446;5.404;2023-11-18T13:23:08;12.60;99.90
13049;DHT22;6591;51.446;5.404;2023-11-18T13:25:36;11.90;99.90
13049;DHT22;6591;51.446;5.404;2023-11-18T13:28:08;11.20;99.90
13049;DHT22;6591;51.446;5.404;2023-11-18T13:30:39;13.20;99.90
13049;DHT22;6591;51.446;5.404;2023-11-18T13:33:08;13.70;99.90
13049;DHT22;6591;51.446;5.404;2023-11-18T13:35:36;11.20;99.90
13049;DHT22;6591;51.446;5.404;2023-11-18T13:38:03;12.70;99.90
13049;DHT22;6591;51.446;5.404;2023-11-18T13:40:45;12.90;99.90
13049;DHT22;6591;51.446;5.404;2023-11-18T13:43:16;12.80;99.90
13049;DHT22;6591;51.446;5.404;2023-11-18T13:45:43;13.20;99.90
13049;DHT22;6591;51.446;5.404;2023-11-18T13:48:11;13.10;99.90
13049;DHT22;6591;51.446;5.404;2023-11-18T13:50:43;11.20;99.90
13049;DHT22;6591;51.446;5.404;2023-11-18T13:53:11;11.90;99.90
13049;DHT22;6591;51.446;5.404;2023-11-18T13:55:40;11.20;99.90
13049;DHT22;6591;51.446;5.404;2023-11-18T13:58:07;11.30;99.90
13049;DHT22;6591;51.446;5.404;2023-11-18T14:00:37;11.20;99.90
13049;DHT22;6591;51.446;5.404;2023-11-18T14:03:04;13.20;99.90
13049;DHT22;6591;51.446;5.404;2023-11-18T14:05:33;11.20;99.90
13049;DHT22;6591;51.446;5.404;2023-11-18T14:08:03;11.20;99.90
13049;DHT22;6591;51.446;5.404;2023-11-18T14:10:39;11.20;99.90
13049;DHT22;6591;51.446;5.404;2023-11-18T14:13:08;11.10;99.90
13049;DHT22;6591;51.446;5.404;2023-11-18T14:15:44;12.80;99.90
13049;DHT22;6591;51.446;5.404;2023-11-18T14:18:13;11.20;99.90
13049;DHT22;6591;51.446;5.404;2023-11-18T14:20:41;11.10;99.90
13049;DHT22;6591;51.446;5.404;2023-11-18T14:23:08;12.50;99.90
13049;DHT22;6591;51.446;5.404;2023-11-18T14:25:35;11.20;99.90
13049;DHT22;6591;51.446;5.404;2023-11-18T14:28:03;11.10;99.90
13049;DHT22;6591;51.446;5.404;2023-11-18T14:30:30;11.10;99.90
13049;DHT22;6591;51.446;5.404;2023-11-18T14:32:58;11.10;99.90
13049;DHT22;6591;51.446;5.404;2023-11-18T14:35:25;11.20;99.90
13049;DHT22;6591;51.446;5.404;2023-11-18T14:37:56;12.60;99.90
13049;DHT22;6591;51.446;5.404;2023-11-18T14:40:25;11.10;99.90
13049;DHT22;6591;51.446;5.404;2023-11-18T14:42:52;12.40;99.90
13049;DHT22;6591;51.446;5.404;2023-11-18T14:45:20;11.80;99.90
13049;DHT22;6591;51.446;5.404;2023-11-18T14:47:48;13.00;99.90
13049;DHT22;6591;51.446;5.404;2023-11-18T14:50:24;11.90;99.90
13049;DHT22;6591;51.446;5.404;2023-11-18T14:52:53;12.50;99.90
13049;DHT22;6591;51.446;5.404;2023-11-18T14:55:27;11.20;99.90
13049;DHT22;6591;51.446;5.404;2023-11-18T14:57:56;12.10;99.90
13049;DHT22;6591;51.446;5.404;2023-11-18T15:00:23;12.30;99.90
13049;DHT22;6591;51.446;5.404;2023-11-18T15:02:54;11.10;99.90
13049;DHT22;6591;51.446;5.404;2023-11-18T15:05:26;11.20;99.90
13049;DHT22;6591;51.446;5.404;2023-11-18T15:07:54;12.10;99.90
13049;DHT22;6591;51.446;5.404;2023-11-18T15:10:24;12.30;99.90
13049;DHT22;6591;51.446;5.404;2023-11-18T15:12:53;11.10;99.90
13049;DHT22;6591;51.446;5.404;2023-11-18T15:15:26;11.70;99.90
13049;DHT22;6591;51.446;5.404;2023-11-18T15:18:09;12.10;99.90
13049;DHT22;6591;51.446;5.404;2023-11-18T15:20:41;11.20;99.90
13049;DHT22;6591;51.446;5.404;2023-11-18T15:23:14;11.20;99.90
13049;DHT22;6591;51.446;5.404;2023-11-18T15:25:44;11.70;99.90
13049;DHT22;6591;51.446;5.404;2023-11-18T15:28:11;12.50;99.90
13049;DHT22;6591;51.446;5.404;2023-11-18T15:30:39;11.70;99.90
13049;DHT22;6591;51.446;5.404;2023-11-18T15:33:07;11.20;99.90
13049;DHT22;6591;51.446;5.404;2023-11-18T15:35:37;11.20;99.90
13049;DHT22;6591;51.446;5.404;2023-11-18T15:38:13;11.50;99.90
13049;DHT22;6591;51.446;5.404;2023-11-18T15:40:43;13.20;99.90
13049;DHT22;6591;51.446;5.404;2023-11-18T15:43:11;11.20;99.90
13049;DHT22;6591;51.446;5.404;2023-11-18T15:45:38;11.50;99.90
13049;DHT22;6591;51.446;5.404;2023-11-18T15:48:06;11.30;99.90
13049;DHT22;6591;51.446;5.404;2023-11-18T15:50:37;11.30;99.90
13049;DHT22;6591;51.446;5.404;2023-11-18T15:53:05;11.90;99.90
13049;DHT22;6591;51.446;5.404;2023-11-18T15:55:35;11.30;99.90
13049;DHT22;6591;51.446;5.404;2023-11-18T15:58:05;11.30;99.90
13049;DHT22;6591;51.446;5.404;2023-11-18T16:00:32;11.30;99.90
13049;DHT22;6591;51.446;5.404;2023-11-18T16:02:59;12.30;99.90
13049;DHT22;6591;51.446;5.404;2023-11-18T16:05:29;11.30;99.90
13049;DHT22;6591;51.446;5.404;2023-11-18T16:08:03;11.30;99.90
13049;DHT22;6591;51.446;5.404;2023-11-18T16:10:31;11.30;99.90
13049;DHT22;6591;51.446;5.404;2023-11-18T16:13:00;12.40;99.90
13049;DHT22;6591;51.446;5.404;2023-11-18T16:15:28;11.30;99.90
13049;DHT22;6591;51.446;5.404;2023-11-18T16:17:57;11.40;99.90
13049;DHT22;6591;51.446;5.404;2023-11-18T16:20:28;12.20;99.90
13049;DHT22;6591;51.446;5.404;2023-11-18T16:23:01;11.40;99.90
13049;DHT22;6591;51.446;5.404;2023-11-18T16:25:30;13.40;99.90
13049;DHT22;6591;51.446;5.404;2023-11-18T16:28:00;12.60;99.90
13049;DHT22;6591;51.446;5.404;2023-11-18T16:30:30;11.50;99.90
13049;DHT22;6591;51.446;5.404;2023-11-18T16:32:59;11.50;99.90
13049;DHT22;6591;51.446;5.404;2023-11-18T16:35:34;12.80;99.90
13049;DHT22;6591;51.446;5.404;2023-11-18T16:38:02;13.60;99.90
13049;DHT22;6591;51.446;5.404;2023-11-18T16:40:29;11.60;99.90
13049;DHT22;6591;51.446;5.404;2023-11-18T16:43:00;13.30;99.90
13049;DHT22;6591;51.446;5.404;2023-11-18T16:45:28;12.80;99.90